sensor_id;sensor_type;location;lat;lon;timestamp;temperature;humidity
49731;DHT22;35622;52.008;5.426;2023-01-24T00:02:23;6.60;71.60
49731;DHT22;35622;52.008;5.426;2023-01-24T00:04:49;7.00;72.10
49731;DHT22;35622;52.008;5.426;2023-01-24T00:07:14;7.20;71.10
49731;DHT22;35622;52.008;5.426;2023-01-24T00:09:40;7.10;70.30
49731;DHT22;35622;52.008;5.426;2023-01-24T00:12:05;7.30;70.30
49731;DHT22;35622;52.008;5.426;2023-01-24T00:14:31;7.00;70.80
49731;DHT22;35622;52.008;5.426;2023-01-24T00:16:56;7.00;70.90
49731;DHT22;35622;52.008;5.426;2023-01-24T00:19:22;7.10;70.00
49731;DHT22;35622;52.008;5.426;2023-01-24T00:21:48;7.40;69.50
49731;DHT22;35622;52.008;5.426;2023-01-24T00:24:13;7.40;69.00
49731;DHT22;35622;52.008;5.426;2023-01-24T00:26:39;7.10;69.90
49731;DHT22;35622;52.008;5.426;2023-01-24T00:29:04;7.20;70.10
49731;DHT22;35622;52.008;5.426;2023-01-24T00:31:30;7.10;70.60
49731;DHT22;35622;52.008;5.426;2023-01-24T00:33:55;7.20;70.40
49731;DHT22;35622;52.008;5.426;2023-01-24T00:36:21;6.90;70.70
49731;DHT22;35622;52.008;5.426;2023-01-24T00:38:47;7.10;71.20
49731;DHT22;35622;52.008;5.426;2023-01-24T00:41:12;7.40;70.40
49731;DHT22;35622;52.008;5.426;2023-01-24T00:43:38;7.50;69.20
49731;DHT22;35622;52.008;5.426;2023-01-24T00:46:07;7.50;68.80
49731;DHT22;35622;52.008;5.426;2023-01-24T00:48:33;7.70;68.90
49731;DHT22;35622;52.008;5.426;2023-01-24T00:50:59;7.50;68.40
49731;DHT22;35622;52.008;5.426;2023-01-24T00:53:24;7.60;68.40
49731;DHT22;35622;52.008;5.426;2023-01-24T00:55:51;7.30;69.10
49731;DHT22;35622;52.008;5.426;2023-01-24T00:58:17;7.20;70.50
49731;DHT22;35622;52.008;5.426;2023-01-24T01:00:44;7.60;70.10
49731;DHT22;35622;52.008;5.426;2023-01-24T01:03:13;7.50;68.90
49731;DHT22;35622;52.008;5.426;2023-01-24T01:05:39;7.80;68.10
49731;DHT22;35622;52.008;5.426;2023-01-24T01:08:05;7.50;69.00
49731;DHT22;35622;52.008;5.426;2023-01-24T01:10:30;7.30;69.00
49731;DHT22;35622;52.008;5.426;2023-01-24T01:12:56;6.80;70.10
49731;DHT22;35622;52.008;5.426;2023-01-24T01:15:22;6.90;70.90
49731;DHT22;35622;52.008;5.426;2023-01-24T01:17:48;7.50;70.50
49731;DHT22;35622;52.008;5.426;2023-01-24T01:20:13;7.20;69.70
49731;DHT22;35622;52.008;5.426;2023-01-24T01:22:39;7.00;70.40
49731;DHT22;35622;52.008;5.426;2023-01-24T01:25:05;7.00;71.50
49731;DHT22;35622;52.008;5.426;2023-01-24T01:27:30;7.00;70.30
49731;DHT22;35622;52.008;5.426;2023-01-24T01:29:56;6.80;70.50
49731;DHT22;35622;52.008;5.426;2023-01-24T01:32:21;6.70;71.20
49731;DHT22;35622;52.008;5.426;2023-01-24T01:34:47;6.70;71.60
49731;DHT22;35622;52.008;5.426;2023-01-24T01:37:12;6.50;71.30
49731;DHT22;35622;52.008;5.426;2023-01-24T01:39:38;6.70;72.10
49731;DHT22;35622;52.008;5.426;2023-01-24T01:42:04;6.90;70.80
49731;DHT22;35622;52.008;5.426;2023-01-24T01:44:30;6.80;71.10
49731;DHT22;35622;52.008;5.426;2023-01-24T01:47:18;7.20;70.50
49731;DHT22;35622;52.008;5.426;2023-01-24T01:49:51;7.40;69.80
49731;DHT22;35622;52.008;5.426;2023-01-24T01:52:20;7.60;68.50
49731;DHT22;35622;52.008;5.426;2023-01-24T01:54:48;7.60;68.60
49731;DHT22;35622;52.008;5.426;2023-01-24T01:57:18;7.80;68.20
49731;DHT22;35622;52.008;5.426;2023-01-24T01:59:52;7.70;66.60
49731;DHT22;35622;52.008;5.426;2023-01-24T02:02:19;7.70;67.40
49731;DHT22;35622;52.008;5.426;2023-01-24T02:04:49;7.60;67.60
49731;DHT22;35622;52.008;5.426;2023-01-24T02:07:24;7.90;66.70
49731;DHT22;35622;52.008;5.426;2023-01-24T02:09:53;7.60;66.50
49731;DHT22;35622;52.008;5.426;2023-01-24T02:12:22;7.40;68.40
49731;DHT22;35622;52.008;5.426;2023-01-24T02:14:53;7.60;68.70
49731;DHT22;35622;52.008;5.426;2023-01-24T02:17:39;7.50;68.20
49731;DHT22;35622;52.008;5.426;2023-01-24T02:23:24;7.60;67.30
49731;DHT22;35622;52.008;5.426;2023-01-24T02:26:04;7.00;68.80
49731;DHT22;35622;52.008;5.426;2023-01-24T02:28:30;6.90;70.30
49731;DHT22;35622;52.008;5.426;2023-01-24T02:30:57;6.90;70.20
49731;DHT22;35622;52.008;5.426;2023-01-24T02:33:23;6.80;70.80
49731;DHT22;35622;52.008;5.426;2023-01-24T02:35:49;7.00;70.30
49731;DHT22;35622;52.008;5.426;2023-01-24T02:38:22;7.20;70.20
49731;DHT22;35622;52.008;5.426;2023-01-24T02:40:51;7.50;69.50
49731;DHT22;35622;52.008;5.426;2023-01-24T02:43:19;7.80;68.10
49731;DHT22;35622;52.008;5.426;2023-01-24T02:45:46;7.50;67.50
49731;DHT22;35622;52.008;5.426;2023-01-24T02:48:11;7.20;69.00
49731;DHT22;35622;52.008;5.426;2023-01-24T02:50:37;7.20;69.70
49731;DHT22;35622;52.008;5.426;2023-01-24T02:53:21;6.90;70.20
49731;DHT22;35622;52.008;5.426;2023-01-24T02:56:14;6.70;70.90
49731;DHT22;35622;52.008;5.426;2023-01-24T02:58:58;7.10;70.70
49731;DHT22;35622;52.008;5.426;2023-01-24T03:01:23;6.80;71.10
49731;DHT22;35622;52.008;5.426;2023-01-24T03:03:50;7.10;70.90
49731;DHT22;35622;52.008;5.426;2023-01-24T03:06:17;6.90;71.50
49731;DHT22;35622;52.008;5.426;2023-01-24T03:08:43;6.80;71.40
49731;DHT22;35622;52.008;5.426;2023-01-24T03:11:10;6.70;71.50
49731;DHT22;35622;52.008;5.426;2023-01-24T03:13:36;6.70;72.50
49731;DHT22;35622;52.008;5.426;2023-01-24T03:16:20;6.90;71.70
49731;DHT22;35622;52.008;5.426;2023-01-24T03:19:05;7.30;70.90
49731;DHT22;35622;52.008;5.426;2023-01-24T03:21:49;7.70;69.10
49731;DHT22;35622;52.008;5.426;2023-01-24T03:24:33;7.70;68.90
49731;DHT22;35622;52.008;5.426;2023-01-24T03:27:18;7.80;69.00
49731;DHT22;35622;52.008;5.426;2023-01-24T03:30:03;7.80;68.90
49731;DHT22;35622;52.008;5.426;2023-01-24T03:32:47;8.00;68.00
49731;DHT22;35622;52.008;5.426;2023-01-24T03:35:31;7.90;68.00
49731;DHT22;35622;52.008;5.426;2023-01-24T03:37:57;7.70;67.80
49731;DHT22;35622;52.008;5.426;2023-01-24T03:40:41;7.20;69.10
49731;DHT22;35622;52.008;5.426;2023-01-24T03:43:07;7.40;69.70
49731;DHT22;35622;52.008;5.426;2023-01-24T03:45:38;6.90;70.10
49731;DHT22;35622;52.008;5.426;2023-01-24T03:48:06;6.90;71.70
49731;DHT22;35622;52.008;5.426;2023-01-24T03:50:39;6.80;71.60
49731;DHT22;35622;52.008;5.426;2023-01-24T03:53:25;7.20;71.60
49731;DHT22;35622;52.008;5.426;2023-01-24T03:55:56;7.50;70.40
49731;DHT22;35622;52.008;5.426;2023-01-24T03:58:23;7.70;69.60
49731;DHT22;35622;52.008;5.426;2023-01-24T04:00:49;7.60;69.00
49731;DHT22;35622;52.008;5.426;2023-01-24T04:03:14;7.80;69.20
49731;DHT22;35622;52.008;5.426;2023-01-24T04:05:40;7.60;69.30
49731;DHT22;35622;52.008;5.426;2023-01-24T04:08:06;7.60;69.00
49731;DHT22;35622;52.008;5.426;2023-01-24T04:10:33;7.70;69.20
49731;DHT22;35622;52.008;5.426;2023-01-24T04:12:58;7.50;69.60
49731;DHT22;35622;52.008;5.426;2023-01-24T04:15:29;7.40;69.50
49731;DHT22;35622;52.008;5.426;2023-01-24T04:17:56;7.50;69.60
49731;DHT22;35622;52.008;5.426;2023-01-24T04:20:22;7.70;69.40
49731;DHT22;35622;52.008;5.426;2023-01-24T04:22:48;7.40;69.10
49731;DHT22;35622;52.008;5.426;2023-01-24T04:25:13;7.50;69.40
49731;DHT22;35622;52.008;5.426;2023-01-24T04:27:39;7.10;69.70
49731;DHT22;35622;52.008;5.426;2023-01-24T04:30:06;7.30;70.50
49731;DHT22;35622;52.008;5.426;2023-01-24T04:32:32;7.60;69.60
49731;DHT22;35622;52.008;5.426;2023-01-24T04:34:58;7.60;68.50
49731;DHT22;35622;52.008;5.426;2023-01-24T04:37:24;7.50;68.60
49731;DHT22;35622;52.008;5.426;2023-01-24T04:39:49;7.80;68.30
49731;DHT22;35622;52.008;5.426;2023-01-24T04:42:15;7.60;67.50
49731;DHT22;35622;52.008;5.426;2023-01-24T04:44:40;7.50;68.80
49731;DHT22;35622;52.008;5.426;2023-01-24T04:47:06;7.30;69.00
49731;DHT22;35622;52.008;5.426;2023-01-24T04:49:31;7.10;69.70
49731;DHT22;35622;52.008;5.426;2023-01-24T04:51:57;6.90;70.60
49731;DHT22;35622;52.008;5.426;2023-01-24T04:54:22;6.90;70.10
49731;DHT22;35622;52.008;5.426;2023-01-24T04:56:48;6.90;70.70
49731;DHT22;35622;52.008;5.426;2023-01-24T04:59:14;6.90;70.70
49731;DHT22;35622;52.008;5.426;2023-01-24T05:01:39;6.90;70.50
49731;DHT22;35622;52.008;5.426;2023-01-24T05:04:05;7.00;70.10
49731;DHT22;35622;52.008;5.426;2023-01-24T05:06:32;6.70;71.50
49731;DHT22;35622;52.008;5.426;2023-01-24T05:08:58;6.40;71.60
49731;DHT22;35622;52.008;5.426;2023-01-24T05:11:24;6.50;72.60
49731;DHT22;35622;52.008;5.426;2023-01-24T05:13:49;6.80;72.00
49731;DHT22;35622;52.008;5.426;2023-01-24T05:16:15;6.40;72.20
49731;DHT22;35622;52.008;5.426;2023-01-24T05:18:41;6.50;73.00
49731;DHT22;35622;52.008;5.426;2023-01-24T05:21:12;6.40;72.80
49731;DHT22;35622;52.008;5.426;2023-01-24T05:23:38;6.30;72.90
49731;DHT22;35622;52.008;5.426;2023-01-24T05:26:04;6.30;73.10
49731;DHT22;35622;52.008;5.426;2023-01-24T05:28:30;6.10;73.70
49731;DHT22;35622;52.008;5.426;2023-01-24T05:31:04;6.20;73.90
49731;DHT22;35622;52.008;5.426;2023-01-24T05:33:31;6.20;73.90
49731;DHT22;35622;52.008;5.426;2023-01-24T05:36:02;6.40;73.80
49731;DHT22;35622;52.008;5.426;2023-01-24T05:38:28;6.90;72.70
49731;DHT22;35622;52.008;5.426;2023-01-24T05:40:59;6.80;71.20
49731;DHT22;35622;52.008;5.426;2023-01-24T05:43:25;6.80;71.40
49731;DHT22;35622;52.008;5.426;2023-01-24T05:45:50;6.60;72.00
49731;DHT22;35622;52.008;5.426;2023-01-24T05:48:16;6.60;72.40
49731;DHT22;35622;52.008;5.426;2023-01-24T05:50:41;6.80;71.60
49731;DHT22;35622;52.008;5.426;2023-01-24T05:53:07;6.70;71.60
49731;DHT22;35622;52.008;5.426;2023-01-24T05:55:32;6.70;71.60
49731;DHT22;35622;52.008;5.426;2023-01-24T05:57:59;7.00;71.60
49731;DHT22;35622;52.008;5.426;2023-01-24T06:00:25;7.10;70.30
49731;DHT22;35622;52.008;5.426;2023-01-24T06:02:51;7.30;70.30
49731;DHT22;35622;52.008;5.426;2023-01-24T06:05:16;7.20;70.50
49731;DHT22;35622;52.008;5.426;2023-01-24T06:07:42;7.20;70.50
49731;DHT22;35622;52.008;5.426;2023-01-24T06:10:08;7.20;70.00
49731;DHT22;35622;52.008;5.426;2023-01-24T06:12:34;7.00;70.70
49731;DHT22;35622;52.008;5.426;2023-01-24T06:14:59;6.80;71.50
49731;DHT22;35622;52.008;5.426;2023-01-24T06:17:25;6.50;72.00
49731;DHT22;35622;52.008;5.426;2023-01-24T06:19:50;6.00;73.30
49731;DHT22;35622;52.008;5.426;2023-01-24T06:22:23;6.40;74.10
49731;DHT22;35622;52.008;5.426;2023-01-24T06:24:50;6.80;72.80
49731;DHT22;35622;52.008;5.426;2023-01-24T06:27:16;6.60;72.10
49731;DHT22;35622;52.008;5.426;2023-01-24T06:29:42;6.80;72.20
49731;DHT22;35622;52.008;5.426;2023-01-24T06:32:18;6.50;72.20
49731;DHT22;35622;52.008;5.426;2023-01-24T06:35:06;6.10;73.60
49731;DHT22;35622;52.008;5.426;2023-01-24T06:37:52;6.20;74.30
49731;DHT22;35622;52.008;5.426;2023-01-24T06:40:23;6.30;73.90
49731;DHT22;35622;52.008;5.426;2023-01-24T06:42:50;6.10;74.50
49731;DHT22;35622;52.008;5.426;2023-01-24T06:45:16;6.50;73.70
49731;DHT22;35622;52.008;5.426;2023-01-24T06:47:42;6.40;73.20
49731;DHT22;35622;52.008;5.426;2023-01-24T06:50:17;6.20;73.60
49731;DHT22;35622;52.008;5.426;2023-01-24T06:52:45;6.30;73.70
49731;DHT22;35622;52.008;5.426;2023-01-24T06:55:11;6.70;72.50
49731;DHT22;35622;52.008;5.426;2023-01-24T06:57:37;6.50;72.40
49731;DHT22;35622;52.008;5.426;2023-01-24T07:00:04;6.70;72.10
49731;DHT22;35622;52.008;5.426;2023-01-24T07:02:30;6.70;71.20
49731;DHT22;35622;52.008;5.426;2023-01-24T07:04:55;6.80;72.00
49731;DHT22;35622;52.008;5.426;2023-01-24T07:07:21;7.20;71.10
49731;DHT22;35622;52.008;5.426;2023-01-24T07:09:46;7.20;70.60
49731;DHT22;35622;52.008;5.426;2023-01-24T07:12:12;7.10;70.40
49731;DHT22;35622;52.008;5.426;2023-01-24T07:14:38;7.00;70.80
49731;DHT22;35622;52.008;5.426;2023-01-24T07:17:03;7.00;70.90
49731;DHT22;35622;52.008;5.426;2023-01-24T07:19:29;6.60;71.60
49731;DHT22;35622;52.008;5.426;2023-01-24T07:21:55;6.10;73.40
49731;DHT22;35622;52.008;5.426;2023-01-24T07:24:27;6.10;74.10
49731;DHT22;35622;52.008;5.426;2023-01-24T07:26:53;6.20;73.80
49731;DHT22;35622;52.008;5.426;2023-01-24T07:29:19;6.60;73.10
49731;DHT22;35622;52.008;5.426;2023-01-24T07:31:46;7.00;72.10
49731;DHT22;35622;52.008;5.426;2023-01-24T07:34:16;7.00;70.50
49731;DHT22;35622;52.008;5.426;2023-01-24T07:36:42;6.70;71.00
49731;DHT22;35622;52.008;5.426;2023-01-24T07:39:08;6.60;72.10
49731;DHT22;35622;52.008;5.426;2023-01-24T07:41:35;6.80;72.10
49731;DHT22;35622;52.008;5.426;2023-01-24T07:44:01;7.10;71.00
49731;DHT22;35622;52.008;5.426;2023-01-24T07:46:32;7.00;71.10
49731;DHT22;35622;52.008;5.426;2023-01-24T07:48:57;7.30;70.40
49731;DHT22;35622;52.008;5.426;2023-01-24T07:51:23;7.00;69.90
49731;DHT22;35622;52.008;5.426;2023-01-24T07:53:49;6.60;71.50
49731;DHT22;35622;52.008;5.426;2023-01-24T07:56:14;6.70;72.20
49731;DHT22;35622;52.008;5.426;2023-01-24T07:58:43;6.60;72.40
49731;DHT22;35622;52.008;5.426;2023-01-24T08:01:08;6.50;72.10
49731;DHT22;35622;52.008;5.426;2023-01-24T08:03:34;6.90;71.60
49731;DHT22;35622;52.008;5.426;2023-01-24T08:05:59;7.00;71.20
49731;DHT22;35622;52.008;5.426;2023-01-24T08:08:25;6.40;71.80
49731;DHT22;35622;52.008;5.426;2023-01-24T08:10:51;6.40;72.30
49731;DHT22;35622;52.008;5.426;2023-01-24T08:13:16;6.80;72.40
49731;DHT22;35622;52.008;5.426;2023-01-24T08:15:42;6.90;71.30
49731;DHT22;35622;52.008;5.426;2023-01-24T08:18:07;6.40;72.60
49731;DHT22;35622;52.008;5.426;2023-01-24T08:20:33;6.10;74.00
49731;DHT22;35622;52.008;5.426;2023-01-24T08:22:59;6.40;73.50
49731;DHT22;35622;52.008;5.426;2023-01-24T08:25:27;6.30;73.30
49731;DHT22;35622;52.008;5.426;2023-01-24T08:27:55;5.80;74.30
49731;DHT22;35622;52.008;5.426;2023-01-24T08:30:21;5.60;75.80
49731;DHT22;35622;52.008;5.426;2023-01-24T08:32:46;5.70;77.20
49731;DHT22;35622;52.008;5.426;2023-01-24T08:35:12;6.20;75.60
49731;DHT22;35622;52.008;5.426;2023-01-24T08:37:37;6.40;73.60
49731;DHT22;35622;52.008;5.426;2023-01-24T08:40:03;6.20;73.30
49731;DHT22;35622;52.008;5.426;2023-01-24T08:42:29;5.90;74.00
49731;DHT22;35622;52.008;5.426;2023-01-24T08:44:55;6.20;75.60
49731;DHT22;35622;52.008;5.426;2023-01-24T08:47:20;6.50;73.10
49731;DHT22;35622;52.008;5.426;2023-01-24T08:49:46;6.20;72.90
49731;DHT22;35622;52.008;5.426;2023-01-24T08:52:11;5.90;74.60
49731;DHT22;35622;52.008;5.426;2023-01-24T08:54:37;6.00;74.80
49731;DHT22;35622;52.008;5.426;2023-01-24T08:57:05;6.30;74.40
49731;DHT22;35622;52.008;5.426;2023-01-24T08:59:32;5.90;74.50
49731;DHT22;35622;52.008;5.426;2023-01-24T09:01:57;5.90;75.40
49731;DHT22;35622;52.008;5.426;2023-01-24T09:04:23;6.10;75.00
49731;DHT22;35622;52.008;5.426;2023-01-24T09:06:52;5.80;75.70
49731;DHT22;35622;52.008;5.426;2023-01-24T09:09:17;5.80;76.40
49731;DHT22;35622;52.008;5.426;2023-01-24T09:11:43;5.80;75.70
49731;DHT22;35622;52.008;5.426;2023-01-24T09:14:09;5.80;76.00
49731;DHT22;35622;52.008;5.426;2023-01-24T09:16:34;5.80;76.50
49731;DHT22;35622;52.008;5.426;2023-01-24T09:19:00;5.60;77.00
49731;DHT22;35622;52.008;5.426;2023-01-24T09:21:25;6.00;76.10
49731;DHT22;35622;52.008;5.426;2023-01-24T09:23:53;6.20;75.60
49731;DHT22;35622;52.008;5.426;2023-01-24T09:26:19;6.40;75.10
49731;DHT22;35622;52.008;5.426;2023-01-24T09:28:45;6.60;74.40
49731;DHT22;35622;52.008;5.426;2023-01-24T09:31:11;6.50;72.90
49731;DHT22;35622;52.008;5.426;2023-01-24T09:33:38;6.80;73.40
49731;DHT22;35622;52.008;5.426;2023-01-24T09:36:04;6.60;72.30
49731;DHT22;35622;52.008;5.426;2023-01-24T09:38:31;6.30;73.60
49731;DHT22;35622;52.008;5.426;2023-01-24T09:41:14;6.00;73.90
49731;DHT22;35622;52.008;5.426;2023-01-24T09:43:46;6.20;74.80
49731;DHT22;35622;52.008;5.426;2023-01-24T09:49:02;6.20;74.70
49731;DHT22;35622;52.008;5.426;2023-01-24T09:51:30;6.40;74.50
49731;DHT22;35622;52.008;5.426;2023-01-24T09:54:00;6.60;74.30
49731;DHT22;35622;52.008;5.426;2023-01-24T09:56:30;6.80;73.40
49731;DHT22;35622;52.008;5.426;2023-01-24T10:01:48;7.00;72.50
49731;DHT22;35622;52.008;5.426;2023-01-24T10:04:19;7.30;71.10
49731;DHT22;35622;52.008;5.426;2023-01-24T10:07:15;7.40;69.70
49731;DHT22;35622;52.008;5.426;2023-01-24T10:09:57;7.50;69.70
49731;DHT22;35622;52.008;5.426;2023-01-24T10:12:37;7.40;68.80
49731;DHT22;35622;52.008;5.426;2023-01-24T10:21:34;7.00;70.70
49731;DHT22;35622;52.008;5.426;2023-01-24T10:23:49;7.20;70.90
49731;DHT22;35622;52.008;5.426;2023-01-24T10:26:42;7.30;69.30
49731;DHT22;35622;52.008;5.426;2023-01-24T10:29:21;7.30;69.90
49731;DHT22;35622;52.008;5.426;2023-01-24T10:31:56;7.10;70.00
49731;DHT22;35622;52.008;5.426;2023-01-24T10:39:34;7.10;70.30
49731;DHT22;35622;52.008;5.426;2023-01-24T10:42:00;6.70;71.00
49731;DHT22;35622;52.008;5.426;2023-01-24T10:44:28;7.10;71.00
49731;DHT22;35622;52.008;5.426;2023-01-24T10:47:15;7.40;70.30
49731;DHT22;35622;52.008;5.426;2023-01-24T10:50:11;7.20;69.10
49731;DHT22;35622;52.008;5.426;2023-01-24T10:52:37;6.40;71.90
49731;DHT22;35622;52.008;5.426;2023-01-24T10:55:35;6.50;72.90
49731;DHT22;35622;52.008;5.426;2023-01-24T10:58:23;6.90;72.10
49731;DHT22;35622;52.008;5.426;2023-01-24T11:00:59;6.90;71.60
49731;DHT22;35622;52.008;5.426;2023-01-24T11:03:30;6.40;72.60
49731;DHT22;35622;52.008;5.426;2023-01-24T11:05:58;7.00;72.00
49731;DHT22;35622;52.008;5.426;2023-01-24T11:08:33;7.10;70.80
49731;DHT22;35622;52.008;5.426;2023-01-24T11:10:59;7.20;70.50
49731;DHT22;35622;52.008;5.426;2023-01-24T11:13:30;7.50;69.40
49731;DHT22;35622;52.008;5.426;2023-01-24T11:16:24;7.30;68.50
49731;DHT22;35622;52.008;5.426;2023-01-24T11:19:03;7.20;69.40
49731;DHT22;35622;52.008;5.426;2023-01-24T11:21:31;7.50;69.30
49731;DHT22;35622;52.008;5.426;2023-01-24T11:26:35;7.40;70.00
49731;DHT22;35622;52.008;5.426;2023-01-24T11:29:16;7.90;68.50
49731;DHT22;35622;52.008;5.426;2023-01-24T11:37:06;8.00;66.10
49731;DHT22;35622;52.008;5.426;2023-01-24T11:47:38;7.80;67.10
49731;DHT22;35622;52.008;5.426;2023-01-24T11:50:28;7.60;67.70
49731;DHT22;35622;52.008;5.426;2023-01-24T11:56:57;7.60;68.00
49731;DHT22;35622;52.008;5.426;2023-01-24T11:59:43;7.40;68.40
49731;DHT22;35622;52.008;5.426;2023-01-24T12:05:29;7.50;68.60
49731;DHT22;35622;52.008;5.426;2023-01-24T12:10:45;7.40;68.20
49731;DHT22;35622;52.008;5.426;2023-01-24T12:13:26;7.20;68.90
49731;DHT22;35622;52.008;5.426;2023-01-24T12:18:32;7.70;67.80
49731;DHT22;35622;52.008;5.426;2023-01-24T12:21:06;7.70;68.10
49731;DHT22;35622;52.008;5.426;2023-01-24T12:26:41;8.10;67.40
49731;DHT22;35622;52.008;5.426;2023-01-24T12:29:15;8.00;66.00
49731;DHT22;35622;52.008;5.426;2023-01-24T12:34:45;8.10;66.20
49731;DHT22;35622;52.008;5.426;2023-01-24T12:45:40;8.50;66.00
49731;DHT22;35622;52.008;5.426;2023-01-24T12:48:38;8.60;65.20
49731;DHT22;35622;52.008;5.426;2023-01-24T12:53:59;8.50;65.00
49731;DHT22;35622;52.008;5.426;2023-01-24T12:59:27;8.40;64.30
49731;DHT22;35622;52.008;5.426;2023-01-24T13:04:48;8.60;63.60
49731;DHT22;35622;52.008;5.426;2023-01-24T13:09:48;8.30;65.30
49731;DHT22;35622;52.008;5.426;2023-01-24T13:12:23;8.10;64.50
49731;DHT22;35622;52.008;5.426;2023-01-24T13:14:54;8.40;64.80
49731;DHT22;35622;52.008;5.426;2023-01-24T13:25:49;7.40;66.60
49731;DHT22;35622;52.008;5.426;2023-01-24T13:31:14;7.40;67.70
49731;DHT22;35622;52.008;5.426;2023-01-24T13:33:45;7.70;67.10
49731;DHT22;35622;52.008;5.426;2023-01-24T13:36:17;7.60;67.20
49731;DHT22;35622;52.008;5.426;2023-01-24T13:38:44;7.80;67.70
49731;DHT22;35622;52.008;5.426;2023-01-24T13:44:03;7.90;65.10
49731;DHT22;35622;52.008;5.426;2023-01-24T13:51:58;8.30;65.70
49731;DHT22;35622;52.008;5.426;2023-01-24T13:54:41;8.40;65.10
49731;DHT22;35622;52.008;5.426;2023-01-24T13:57:20;8.40;65.40
49731;DHT22;35622;52.008;5.426;2023-01-24T14:05:51;7.90;65.40
49731;DHT22;35622;52.008;5.426;2023-01-24T14:13:55;8.50;63.90
49731;DHT22;35622;52.008;5.426;2023-01-24T14:25:02;8.50;63.20
49731;DHT22;35622;52.008;5.426;2023-01-24T14:27:48;8.20;63.60
49731;DHT22;35622;52.008;5.426;2023-01-24T14:30:32;7.80;64.90
49731;DHT22;35622;52.008;5.426;2023-01-24T14:35:57;7.90;65.00
49731;DHT22;35622;52.008;5.426;2023-01-24T14:38:23;7.60;65.10
49731;DHT22;35622;52.008;5.426;2023-01-24T14:40:53;7.50;65.40
49731;DHT22;35622;52.008;5.426;2023-01-24T14:43:27;7.40;65.10
49731;DHT22;35622;52.008;5.426;2023-01-24T14:45:57;7.80;64.70
49731;DHT22;35622;52.008;5.426;2023-01-24T14:48:24;8.00;63.80
49731;DHT22;35622;52.008;5.426;2023-01-24T14:51:04;7.60;65.10
49731;DHT22;35622;52.008;5.426;2023-01-24T14:53:33;7.90;65.50
49731;DHT22;35622;52.008;5.426;2023-01-24T14:56:17;7.30;65.00
49731;DHT22;35622;52.008;5.426;2023-01-24T14:58:43;7.30;66.90
49731;DHT22;35622;52.008;5.426;2023-01-24T15:01:28;7.10;67.00
49731;DHT22;35622;52.008;5.426;2023-01-24T15:03:54;7.10;67.50
49731;DHT22;35622;52.008;5.426;2023-01-24T15:06:22;7.30;66.70
49731;DHT22;35622;52.008;5.426;2023-01-24T15:08:56;7.00;67.10
49731;DHT22;35622;52.008;5.426;2023-01-24T15:11:33;7.30;67.10
49731;DHT22;35622;52.008;5.426;2023-01-24T15:14:22;7.20;67.30
49731;DHT22;35622;52.008;5.426;2023-01-24T15:16:51;7.10;67.50
49731;DHT22;35622;52.008;5.426;2023-01-24T15:19:21;7.40;67.00
49731;DHT22;35622;52.008;5.426;2023-01-24T15:21:49;7.60;66.40
49731;DHT22;35622;52.008;5.426;2023-01-24T15:24:30;7.80;65.90
49731;DHT22;35622;52.008;5.426;2023-01-24T15:26:57;7.60;65.70
49731;DHT22;35622;52.008;5.426;2023-01-24T15:29:46;7.30;65.60
49731;DHT22;35622;52.008;5.426;2023-01-24T15:35:19;7.20;67.60
49731;DHT22;35622;52.008;5.426;2023-01-24T15:37:58;7.30;67.00
49731;DHT22;35622;52.008;5.426;2023-01-24T15:40:24;6.70;67.70
49731;DHT22;35622;52.008;5.426;2023-01-24T15:42:49;7.00;68.50
49731;DHT22;35622;52.008;5.426;2023-01-24T15:45:36;7.00;68.10
49731;DHT22;35622;52.008;5.426;2023-01-24T15:50:52;6.90;69.20
49731;DHT22;35622;52.008;5.426;2023-01-24T15:53:43;7.20;68.00
49731;DHT22;35622;52.008;5.426;2023-01-24T15:56:12;7.50;66.50
49731;DHT22;35622;52.008;5.426;2023-01-24T15:58:41;7.20;66.20
49731;DHT22;35622;52.008;5.426;2023-01-24T16:01:06;7.30;67.00
49731;DHT22;35622;52.008;5.426;2023-01-24T16:03:32;7.40;66.00
49731;DHT22;35622;52.008;5.426;2023-01-24T16:05:58;7.20;66.80
49731;DHT22;35622;52.008;5.426;2023-01-24T16:08:24;7.50;66.80
49731;DHT22;35622;52.008;5.426;2023-01-24T16:10:51;7.50;65.30
49731;DHT22;35622;52.008;5.426;2023-01-24T16:13:36;7.40;65.40
49731;DHT22;35622;52.008;5.426;2023-01-24T16:16:05;7.50;65.60
49731;DHT22;35622;52.008;5.426;2023-01-24T16:18:32;7.10;66.50
49731;DHT22;35622;52.008;5.426;2023-01-24T16:20:58;7.00;66.90
49731;DHT22;35622;52.008;5.426;2023-01-24T16:23:24;7.10;66.80
49731;DHT22;35622;52.008;5.426;2023-01-24T16:25:51;7.10;67.60
49731;DHT22;35622;52.008;5.426;2023-01-24T16:28:25;7.00;67.70
49731;DHT22;35622;52.008;5.426;2023-01-24T16:30:52;7.10;68.10
49731;DHT22;35622;52.008;5.426;2023-01-24T16:33:20;7.20;68.00
49731;DHT22;35622;52.008;5.426;2023-01-24T16:35:46;7.20;68.00
49731;DHT22;35622;52.008;5.426;2023-01-24T16:38:13;7.60;66.90
49731;DHT22;35622;52.008;5.426;2023-01-24T16:40:40;7.60;65.70
49731;DHT22;35622;52.008;5.426;2023-01-24T16:43:06;7.80;65.20
49731;DHT22;35622;52.008;5.426;2023-01-24T16:45:33;7.50;64.90
49731;DHT22;35622;52.008;5.426;2023-01-24T16:47:59;7.20;65.80
49731;DHT22;35622;52.008;5.426;2023-01-24T16:50:25;6.90;66.60
49731;DHT22;35622;52.008;5.426;2023-01-24T16:52:52;6.80;67.50
49731;DHT22;35622;52.008;5.426;2023-01-24T16:55:18;6.90;67.80
49731;DHT22;35622;52.008;5.426;2023-01-24T16:57:43;7.10;67.80
49731;DHT22;35622;52.008;5.426;2023-01-24T17:00:10;6.90;67.80
49731;DHT22;35622;52.008;5.426;2023-01-24T17:02:40;6.70;68.60
49731;DHT22;35622;52.008;5.426;2023-01-24T17:05:06;6.90;68.20
49731;DHT22;35622;52.008;5.426;2023-01-24T17:07:32;7.10;68.00
49731;DHT22;35622;52.008;5.426;2023-01-24T17:09:57;7.40;67.50
49731;DHT22;35622;52.008;5.426;2023-01-24T17:12:23;7.30;66.40
49731;DHT22;35622;52.008;5.426;2023-01-24T17:14:49;7.20;67.00
49731;DHT22;35622;52.008;5.426;2023-01-24T17:17:14;7.10;67.50
49731;DHT22;35622;52.008;5.426;2023-01-24T17:19:40;7.10;66.10
49731;DHT22;35622;52.008;5.426;2023-01-24T17:22:06;6.90;67.00
49731;DHT22;35622;52.008;5.426;2023-01-24T17:24:31;7.00;67.50
49731;DHT22;35622;52.008;5.426;2023-01-24T17:26:57;6.80;68.00
49731;DHT22;35622;52.008;5.426;2023-01-24T17:29:23;7.00;67.30
49731;DHT22;35622;52.008;5.426;2023-01-24T17:31:53;6.70;67.70
49731;DHT22;35622;52.008;5.426;2023-01-24T17:34:19;6.50;68.20
49731;DHT22;35622;52.008;5.426;2023-01-24T17:36:44;6.30;68.90
49731;DHT22;35622;52.008;5.426;2023-01-24T17:39:10;6.50;68.80
49731;DHT22;35622;52.008;5.426;2023-01-24T17:41:37;6.40;69.20
49731;DHT22;35622;52.008;5.426;2023-01-24T17:44:02;6.20;70.60
49731;DHT22;35622;52.008;5.426;2023-01-24T17:46:28;5.70;70.70
49731;DHT22;35622;52.008;5.426;2023-01-24T17:48:54;6.30;70.70
49731;DHT22;35622;52.008;5.426;2023-01-24T17:51:19;6.20;70.00
49731;DHT22;35622;52.008;5.426;2023-01-24T17:53:45;6.40;68.80
49731;DHT22;35622;52.008;5.426;2023-01-24T17:56:12;5.80;70.30
49731;DHT22;35622;52.008;5.426;2023-01-24T17:58:39;6.10;70.70
49731;DHT22;35622;52.008;5.426;2023-01-24T18:01:05;6.30;70.00
49731;DHT22;35622;52.008;5.426;2023-01-24T18:03:31;6.40;69.50